sensor_id;sensor_type;location;lat;lon;timestamp;temperature;humidity
63802;DHT22;49949;43.060;25.624;2023-10-08T00:02:42;8.30;99.90
63802;DHT22;49949;43.060;25.624;2023-10-08T00:05:08;8.20;99.90
63802;DHT22;49949;43.060;25.624;2023-10-08T00:07:33;8.20;99.90
63802;DHT22;49949;43.060;25.624;2023-10-08T00:10:00;8.10;99.90
63802;DHT22;49949;43.060;25.624;2023-10-08T00:12:27;8.20;99.90
63802;DHT22;49949;43.060;25.624;2023-10-08T00:14:54;8.10;99.90
63802;DHT22;49949;43.060;25.624;2023-10-08T00:17:20;8.10;99.90
63802;DHT22;49949;43.060;25.624;2023-10-08T00:19:46;8.10;99.90
63802;DHT22;49949;43.060;25.624;2023-10-08T00:22:18;8.00;99.90
63802;DHT22;49949;43.060;25.624;2023-10-08T00:24:43;8.00;99.90
63802;DHT22;49949;43.060;25.624;2023-10-08T00:27:12;8.00;99.90
63802;DHT22;49949;43.060;25.624;2023-10-08T00:29:40;8.00;99.90
63802;DHT22;49949;43.060;25.624;2023-10-08T00:32:08;8.00;99.90
63802;DHT22;49949;43.060;25.624;2023-10-08T00:34:41;7.90;99.90
63802;DHT22;49949;43.060;25.624;2023-10-08T00:37:11;7.80;99.90
63802;DHT22;49949;43.060;25.624;2023-10-08T00:39:41;7.80;99.90
63802;DHT22;49949;43.060;25.624;2023-10-08T00:42:07;7.90;99.90
63802;DHT22;49949;43.060;25.624;2023-10-08T00:44:37;7.90;99.90
63802;DHT22;49949;43.060;25.624;2023-10-08T00:47:16;7.90;99.90
63802;DHT22;49949;43.060;25.624;2023-10-08T00:49:43;7.90;99.90
63802;DHT22;49949;43.060;25.624;2023-10-08T00:52:10;7.80;99.90
63802;DHT22;49949;43.060;25.624;2023-10-08T00:54:38;7.80;99.90
63802;DHT22;49949;43.060;25.624;2023-10-08T00:57:18;7.70;99.90
63802;DHT22;49949;43.060;25.624;2023-10-08T00:59:48;7.70;99.90
63802;DHT22;49949;43.060;25.624;2023-10-08T01:02:22;7.70;99.90
63802;DHT22;49949;43.060;25.624;2023-10-08T01:04:52;7.70;99.90
63802;DHT22;49949;43.060;25.624;2023-10-08T01:07:20;7.60;99.90
63802;DHT22;49949;43.060;25.624;2023-10-08T01:09:46;7.70;99.90
63802;DHT22;49949;43.060;25.624;2023-10-08T01:12:26;7.70;99.90
63802;DHT22;49949;43.060;25.624;2023-10-08T01:14:54;7.70;99.90
63802;DHT22;49949;43.060;25.624;2023-10-08T01:17:22;7.70;99.90
63802;DHT22;49949;43.060;25.624;2023-10-08T01:19:52;7.70;99.90
63802;DHT22;49949;43.060;25.624;2023-10-08T01:22:37;7.60;99.90
63802;DHT22;49949;43.060;25.624;2023-10-08T01:25:04;7.60;99.90
63802;DHT22;49949;43.060;25.624;2023-10-08T01:27:31;7.50;99.90
63802;DHT22;49949;43.060;25.624;2023-10-08T01:30:00;7.50;99.90
63802;DHT22;49949;43.060;25.624;2023-10-08T01:32:35;7.50;99.90
63802;DHT22;49949;43.060;25.624;2023-10-08T01:35:02;7.50;99.90
63802;DHT22;49949;43.060;25.624;2023-10-08T01:37:30;7.50;99.90
63802;DHT22;49949;43.060;25.624;2023-10-08T01:39:59;7.50;99.90
63802;DHT22;49949;43.060;25.624;2023-10-08T01:42:27;7.50;99.90
63802;DHT22;49949;43.060;25.624;2023-10-08T01:44:54;7.40;99.90
63802;DHT22;49949;43.060;25.624;2023-10-08T01:47:21;7.40;99.90
63802;DHT22;49949;43.060;25.624;2023-10-08T01:49:51;7.40;99.90
63802;DHT22;49949;43.060;25.624;2023-10-08T01:52:23;7.40;99.90
63802;DHT22;49949;43.060;25.624;2023-10-08T01:54:49;7.40;99.90
63802;DHT22;49949;43.060;25.624;2023-10-08T01:57:16;7.40;99.90
63802;DHT22;49949;43.060;25.624;2023-10-08T01:59:42;7.30;99.90
63802;DHT22;49949;43.060;25.624;2023-10-08T02:02:09;7.30;99.90
63802;DHT22;49949;43.060;25.624;2023-10-08T02:04:35;7.30;99.90
63802;DHT22;49949;43.060;25.624;2023-10-08T02:07:05;7.30;99.90
63802;DHT22;49949;43.060;25.624;2023-10-08T02:09:33;7.30;99.90
63802;DHT22;49949;43.060;25.624;2023-10-08T02:11:59;7.30;99.90
63802;DHT22;49949;43.060;25.624;2023-10-08T02:14:25;7.30;99.90
63802;DHT22;49949;43.060;25.624;2023-10-08T02:16:51;7.30;99.90
63802;DHT22;49949;43.060;25.624;2023-10-08T02:19:22;7.30;99.90
63802;DHT22;49949;43.060;25.624;2023-10-08T02:21:53;7.30;99.90
63802;DHT22;49949;43.060;25.624;2023-10-08T02:24:20;7.30;99.90
63802;DHT22;49949;43.060;25.624;2023-10-08T02:26:53;7.30;99.90
63802;DHT22;49949;43.060;25.624;2023-10-08T02:29:20;7.20;99.90
63802;DHT22;49949;43.060;25.624;2023-10-08T02:31:47;7.10;99.90
63802;DHT22;49949;43.060;25.624;2023-10-08T02:34:13;7.10;99.90
63802;DHT22;49949;43.060;25.624;2023-10-08T02:36:40;7.00;99.90
63802;DHT22;49949;43.060;25.624;2023-10-08T02:39:06;7.00;99.90
63802;DHT22;49949;43.060;25.624;2023-10-08T02:41:42;7.00;99.90
63802;DHT22;49949;43.060;25.624;2023-10-08T02:44:10;7.10;99.90
63802;DHT22;49949;43.060;25.624;2023-10-08T02:46:42;7.10;99.90
63802;DHT22;49949;43.060;25.624;2023-10-08T02:49:10;7.10;99.90
63802;DHT22;49949;43.060;25.624;2023-10-08T02:51:40;7.10;99.90
63802;DHT22;49949;43.060;25.624;2023-10-08T02:54:07;7.00;99.90
63802;DHT22;49949;43.060;25.624;2023-10-08T02:56:34;7.00;99.90
63802;DHT22;49949;43.060;25.624;2023-10-08T02:59:00;7.00;99.90
63802;DHT22;49949;43.060;25.624;2023-10-08T03:01:26;7.00;99.90
63802;DHT22;49949;43.060;25.624;2023-10-08T03:03:52;7.00;99.90
63802;DHT22;49949;43.060;25.624;2023-10-08T03:06:29;6.90;99.90
63802;DHT22;49949;43.060;25.624;2023-10-08T03:08:58;7.00;99.90
63802;DHT22;49949;43.060;25.624;2023-10-08T03:11:30;7.00;99.90
63802;DHT22;49949;43.060;25.624;2023-10-08T03:13:57;7.10;99.90
63802;DHT22;49949;43.060;25.624;2023-10-08T03:16:22;7.00;99.90
63802;DHT22;49949;43.060;25.624;2023-10-08T03:18:54;7.00;99.90
63802;DHT22;49949;43.060;25.624;2023-10-08T03:21:22;7.00;99.90
63802;DHT22;49949;43.060;25.624;2023-10-08T03:24:04;7.00;99.90
63802;DHT22;49949;43.060;25.624;2023-10-08T03:26:38;6.90;99.90
63802;DHT22;49949;43.060;25.624;2023-10-08T03:29:05;6.90;99.90
63802;DHT22;49949;43.060;25.624;2023-10-08T03:31:41;6.90;99.90
63802;DHT22;49949;43.060;25.624;2023-10-08T03:34:18;6.90;99.90
63802;DHT22;49949;43.060;25.624;2023-10-08T03:36:46;6.90;99.90
63802;DHT22;49949;43.060;25.624;2023-10-08T03:39:16;6.80;99.90
63802;DHT22;49949;43.060;25.624;2023-10-08T03:41:44;6.90;99.90
63802;DHT22;49949;43.060;25.624;2023-10-08T03:44:23;6.90;99.90
63802;DHT22;49949;43.060;25.624;2023-10-08T03:46:50;6.80;99.90
63802;DHT22;49949;43.060;25.624;2023-10-08T03:49:18;6.80;99.90
63802;DHT22;49949;43.060;25.624;2023-10-08T03:51:46;6.80;99.90
63802;DHT22;49949;43.060;25.624;2023-10-08T03:54:13;6.80;99.90
63802;DHT22;49949;43.060;25.624;2023-10-08T03:56:45;6.90;99.90
63802;DHT22;49949;43.060;25.624;2023-10-08T03:59:17;6.90;99.90
63802;DHT22;49949;43.060;25.624;2023-10-08T04:01:56;6.80;99.90
63802;DHT22;49949;43.060;25.624;2023-10-08T04:04:25;6.70;99.90
63802;DHT22;49949;43.060;25.624;2023-10-08T04:07:16;6.80;99.90
63802;DHT22;49949;43.060;25.624;2023-10-08T04:10:00;6.80;99.90
63802;DHT22;49949;43.060;25.624;2023-10-08T04:12:38;6.80;99.90
63802;DHT22;49949;43.060;25.624;2023-10-08T04:15:13;6.80;99.90
63802;DHT22;49949;43.060;25.624;2023-10-08T04:17:41;6.80;99.90
63802;DHT22;49949;43.060;25.624;2023-10-08T04:20:12;6.90;99.90
63802;DHT22;49949;43.060;25.624;2023-10-08T04:22:59;6.90;99.90
63802;DHT22;49949;43.060;25.624;2023-10-08T04:25:26;6.90;99.90
63802;DHT22;49949;43.060;25.624;2023-10-08T04:27:56;6.80;99.90
63802;DHT22;49949;43.060;25.624;2023-10-08T04:30:25;6.80;99.90
63802;DHT22;49949;43.060;25.624;2023-10-08T04:32:59;6.70;99.90
63802;DHT22;49949;43.060;25.624;2023-10-08T04:35:35;6.80;99.90
63802;DHT22;49949;43.060;25.624;2023-10-08T04:38:21;6.80;99.90
63802;DHT22;49949;43.060;25.624;2023-10-08T04:40:50;6.80;99.90
63802;DHT22;49949;43.060;25.624;2023-10-08T04:43:22;6.80;99.90
63802;DHT22;49949;43.060;25.624;2023-10-08T04:45:57;6.80;99.90
63802;DHT22;49949;43.060;25.624;2023-10-08T04:48:23;6.90;99.90
63802;DHT22;49949;43.060;25.624;2023-10-08T04:50:51;6.80;99.90
63802;DHT22;49949;43.060;25.624;2023-10-08T04:53:28;6.90;99.90
63802;DHT22;49949;43.060;25.624;2023-10-08T04:56:02;6.90;99.90
63802;DHT22;49949;43.060;25.624;2023-10-08T04:58:34;7.00;99.90
63802;DHT22;49949;43.060;25.624;2023-10-08T05:01:03;7.00;99.90
63802;DHT22;49949;43.060;25.624;2023-10-08T05:03:47;7.10;99.90
63802;DHT22;49949;43.060;25.624;2023-10-08T05:06:23;7.10;99.90
63802;DHT22;49949;43.060;25.624;2023-10-08T05:09:06;7.10;99.90
63802;DHT22;49949;43.060;25.624;2023-10-08T05:11:44;7.10;99.90
63802;DHT22;49949;43.060;25.624;2023-10-08T05:14:19;7.20;99.90
63802;DHT22;49949;43.060;25.624;2023-10-08T05:16:58;7.30;99.90
63802;DHT22;49949;43.060;25.624;2023-10-08T05:19:29;7.40;99.90
63802;DHT22;49949;43.060;25.624;2023-10-08T05:22:17;7.50;99.90
63802;DHT22;49949;43.060;25.624;2023-10-08T05:24:49;7.60;99.90
63802;DHT22;49949;43.060;25.624;2023-10-08T05:27:35;7.70;99.90
63802;DHT22;49949;43.060;25.624;2023-10-08T05:30:16;7.70;99.90
63802;DHT22;49949;43.060;25.624;2023-10-08T05:32:52;7.80;99.90
63802;DHT22;49949;43.060;25.624;2023-10-08T05:35:37;7.90;99.90
63802;DHT22;49949;43.060;25.624;2023-10-08T05:38:05;8.00;99.90
63802;DHT22;49949;43.060;25.624;2023-10-08T05:41:04;8.10;99.90
63802;DHT22;49949;43.060;25.624;2023-10-08T05:43:31;8.20;99.90
63802;DHT22;49949;43.060;25.624;2023-10-08T05:46:10;8.30;99.90
63802;DHT22;49949;43.060;25.624;2023-10-08T05:48:58;8.50;99.90
63802;DHT22;49949;43.060;25.624;2023-10-08T05:51:46;8.60;99.90
63802;DHT22;49949;43.060;25.624;2023-10-08T05:54:19;8.80;99.90
63802;DHT22;49949;43.060;25.624;2023-10-08T05:57:02;8.90;99.90
63802;DHT22;49949;43.060;25.624;2023-10-08T05:59:40;9.00;99.90
63802;DHT22;49949;43.060;25.624;2023-10-08T06:02:32;9.20;99.90
63802;DHT22;49949;43.060;25.624;2023-10-08T06:04:59;9.30;99.90
63802;DHT22;49949;43.060;25.624;2023-10-08T06:07:48;9.40;99.90
63802;DHT22;49949;43.060;25.624;2023-10-08T06:10:17;9.60;99.90
63802;DHT22;49949;43.060;25.624;2023-10-08T06:13:07;9.80;99.90
63802;DHT22;49949;43.060;25.624;2023-10-08T06:15:43;10.00;99.90
63802;DHT22;49949;43.060;25.624;2023-10-08T06:18:11;10.20;99.90
63802;DHT22;49949;43.060;25.624;2023-10-08T06:20:38;10.50;99.90
63802;DHT22;49949;43.060;25.624;2023-10-08T06:23:09;10.70;99.90
63802;DHT22;49949;43.060;25.624;2023-10-08T06:25:35;10.80;99.90
63802;DHT22;49949;43.060;25.624;2023-10-08T06:28:14;11.00;99.90
63802;DHT22;49949;43.060;25.624;2023-10-08T06:31:02;11.30;99.90
63802;DHT22;49949;43.060;25.624;2023-10-08T06:33:31;11.60;99.90
63802;DHT22;49949;43.060;25.624;2023-10-08T06:36:02;11.80;99.90
63802;DHT22;49949;43.060;25.624;2023-10-08T06:38:34;12.00;99.90
63802;DHT22;49949;43.060;25.624;2023-10-08T06:41:04;12.20;99.90
63802;DHT22;49949;43.060;25.624;2023-10-08T06:43:46;12.50;99.90
63802;DHT22;49949;43.060;25.624;2023-10-08T06:46:16;12.70;99.90
63802;DHT22;49949;43.060;25.624;2023-10-08T06:48:46;13.00;99.90
63802;DHT22;49949;43.060;25.624;2023-10-08T06:51:15;13.30;99.90
63802;DHT22;49949;43.060;25.624;2023-10-08T06:53:44;13.60;99.90
63802;DHT22;49949;43.060;25.624;2023-10-08T06:56:11;13.90;99.90
63802;DHT22;49949;43.060;25.624;2023-10-08T06:58:38;14.30;99.90
63802;DHT22;49949;43.060;25.624;2023-10-08T07:01:05;14.60;99.90
63802;DHT22;49949;43.060;25.624;2023-10-08T07:03:33;15.00;99.90
63802;DHT22;49949;43.060;25.624;2023-10-08T07:05:59;15.40;99.90
63802;DHT22;49949;43.060;25.624;2023-10-08T07:08:31;15.80;99.90
63802;DHT22;49949;43.060;25.624;2023-10-08T07:10:59;16.20;97.40
63802;DHT22;49949;43.060;25.624;2023-10-08T07:13:26;16.70;94.60
63802;DHT22;49949;43.060;25.624;2023-10-08T07:15:55;17.20;87.90
63802;DHT22;49949;43.060;25.624;2023-10-08T07:18:21;17.70;83.90
63802;DHT22;49949;43.060;25.624;2023-10-08T07:20:57;18.20;76.10
63802;DHT22;49949;43.060;25.624;2023-10-08T07:23:27;18.80;72.70
63802;DHT22;49949;43.060;25.624;2023-10-08T07:26:03;19.30;69.30
63802;DHT22;49949;43.060;25.624;2023-10-08T07:28:50;19.80;66.10
63802;DHT22;49949;43.060;25.624;2023-10-08T07:31:20;20.30;62.00
63802;DHT22;49949;43.060;25.624;2023-10-08T07:33:54;20.80;60.40
63802;DHT22;49949;43.060;25.624;2023-10-08T07:36:24;21.10;59.80
63802;DHT22;49949;43.060;25.624;2023-10-08T07:38:51;21.40;58.50
63802;DHT22;49949;43.060;25.624;2023-10-08T07:41:17;21.70;57.70
63802;DHT22;49949;43.060;25.624;2023-10-08T07:43:46;21.80;57.50
63802;DHT22;49949;43.060;25.624;2023-10-08T07:46:25;22.00;56.00
63802;DHT22;49949;43.060;25.624;2023-10-08T07:48:54;22.20;56.00
63802;DHT22;49949;43.060;25.624;2023-10-08T07:51:20;22.30;55.20
63802;DHT22;49949;43.060;25.624;2023-10-08T07:53:51;22.50;54.30
63802;DHT22;49949;43.060;25.624;2023-10-08T07:56:22;22.70;54.80
63802;DHT22;49949;43.060;25.624;2023-10-08T08:02:11;23.10;52.50
63802;DHT22;49949;43.060;25.624;2023-10-08T08:04:43;23.20;52.60
63802;DHT22;49949;43.060;25.624;2023-10-08T08:07:11;23.30;51.90
63802;DHT22;49949;43.060;25.624;2023-10-08T08:09:44;23.40;51.10
63802;DHT22;49949;43.060;25.624;2023-10-08T08:12:20;23.60;51.20
63802;DHT22;49949;43.060;25.624;2023-10-08T08:14:47;23.70;51.00
63802;DHT22;49949;43.060;25.624;2023-10-08T08:17:14;23.80;50.70
63802;DHT22;49949;43.060;25.624;2023-10-08T08:19:45;23.90;50.30
63802;DHT22;49949;43.060;25.624;2023-10-08T08:22:13;24.10;50.10
63802;DHT22;49949;43.060;25.624;2023-10-08T08:24:53;24.20;49.50
63802;DHT22;49949;43.060;25.624;2023-10-08T08:27:21;24.40;49.30
63802;DHT22;49949;43.060;25.624;2023-10-08T08:29:52;24.40;49.90
63802;DHT22;49949;43.060;25.624;2023-10-08T08:32:24;24.50;49.50
63802;DHT22;49949;43.060;25.624;2023-10-08T08:34:49;24.60;50.10
63802;DHT22;49949;43.060;25.624;2023-10-08T08:37:18;24.70;49.30
63802;DHT22;49949;43.060;25.624;2023-10-08T08:39:44;24.80;49.40
63802;DHT22;49949;43.060;25.624;2023-10-08T08:42:11;24.90;48.50
63802;DHT22;49949;43.060;25.624;2023-10-08T08:44:44;25.00;48.10
63802;DHT22;49949;43.060;25.624;2023-10-08T08:47:14;25.20;48.50
63802;DHT22;49949;43.060;25.624;2023-10-08T08:49:46;25.30;47.90
63802;DHT22;49949;43.060;25.624;2023-10-08T08:52:13;25.40;47.70
63802;DHT22;49949;43.060;25.624;2023-10-08T08:54:40;25.60;47.00
63802;DHT22;49949;43.060;25.624;2023-10-08T08:57:08;25.80;46.50
63802;DHT22;49949;43.060;25.624;2023-10-08T08:59:43;25.90;46.50
63802;DHT22;49949;43.060;25.624;2023-10-08T09:02:11;26.00;47.00
63802;DHT22;49949;43.060;25.624;2023-10-08T09:04:39;26.10;45.90
63802;DHT22;49949;43.060;25.624;2023-10-08T09:07:05;26.20;45.90
63802;DHT22;49949;43.060;25.624;2023-10-08T09:09:32;26.20;46.30
63802;DHT22;49949;43.060;25.624;2023-10-08T09:11:58;26.40;46.20
63802;DHT22;49949;43.060;25.624;2023-10-08T09:14:25;26.60;46.40
63802;DHT22;49949;43.060;25.624;2023-10-08T09:16:54;26.60;46.40
63802;DHT22;49949;43.060;25.624;2023-10-08T09:19:20;26.70;46.50
63802;DHT22;49949;43.060;25.624;2023-10-08T09:22:09;26.90;46.20
63802;DHT22;49949;43.060;25.624;2023-10-08T09:24:41;27.00;46.90
63802;DHT22;49949;43.060;25.624;2023-10-08T09:27:09;26.90;46.50
63802;DHT22;49949;43.060;25.624;2023-10-08T09:29:40;27.00;47.40
63802;DHT22;49949;43.060;25.624;2023-10-08T09:32:09;27.00;47.30
63802;DHT22;49949;43.060;25.624;2023-10-08T09:34:36;27.00;47.20
63802;DHT22;49949;43.060;25.624;2023-10-08T09:37:02;26.90;47.50
63802;DHT22;49949;43.060;25.624;2023-10-08T09:39:29;27.00;47.50
63802;DHT22;49949;43.060;25.624;2023-10-08T09:42:00;27.20;47.60
63802;DHT22;49949;43.060;25.624;2023-10-08T09:44:28;27.30;47.60
63802;DHT22;49949;43.060;25.624;2023-10-08T09:47:04;27.30;47.40
63802;DHT22;49949;43.060;25.624;2023-10-08T09:49:44;27.40;46.60
63802;DHT22;49949;43.060;25.624;2023-10-08T09:52:16;27.50;47.00
63802;DHT22;49949;43.060;25.624;2023-10-08T09:54:44;27.30;46.70
63802;DHT22;49949;43.060;25.624;2023-10-08T09:57:15;27.40;47.00
63802;DHT22;49949;43.060;25.624;2023-10-08T09:59:45;27.30;47.10
63802;DHT22;49949;43.060;25.624;2023-10-08T10:02:12;27.30;46.70
63802;DHT22;49949;43.060;25.624;2023-10-08T10:04:43;27.30;46.80
63802;DHT22;49949;43.060;25.624;2023-10-08T10:07:11;27.30;47.00
63802;DHT22;49949;43.060;25.624;2023-10-08T10:09:46;27.40;46.80
63802;DHT22;49949;43.060;25.624;2023-10-08T10:12:25;27.30;47.40
63802;DHT22;49949;43.060;25.624;2023-10-08T10:14:53;27.40;47.50
63802;DHT22;49949;43.060;25.624;2023-10-08T10:17:27;27.30;47.50
63802;DHT22;49949;43.060;25.624;2023-10-08T10:19:59;27.30;47.20
63802;DHT22;49949;43.060;25.624;2023-10-08T10:22:35;27.30;46.80
63802;DHT22;49949;43.060;25.624;2023-10-08T10:25:04;27.30;47.70
63802;DHT22;49949;43.060;25.624;2023-10-08T10:27:42;27.30;48.00
63802;DHT22;49949;43.060;25.624;2023-10-08T10:30:08;27.40;47.40
63802;DHT22;49949;43.060;25.624;2023-10-08T10:32:37;27.40;47.30
63802;DHT22;49949;43.060;25.624;2023-10-08T10:35:03;27.50;47.30
63802;DHT22;49949;43.060;25.624;2023-10-08T10:37:32;27.50;46.60
63802;DHT22;49949;43.060;25.624;2023-10-08T10:40:08;27.60;46.00
63802;DHT22;49949;43.060;25.624;2023-10-08T10:42:39;27.60;46.70
63802;DHT22;49949;43.060;25.624;2023-10-08T10:45:15;27.70;46.40
63802;DHT22;49949;43.060;25.624;2023-10-08T10:48:04;27.80;46.70
63802;DHT22;49949;43.060;25.624;2023-10-08T10:50:51;27.90;47.10
63802;DHT22;49949;43.060;25.624;2023-10-08T10:53:36;27.90;46.40
63802;DHT22;49949;43.060;25.624;2023-10-08T10:56:20;28.00;46.90
63802;DHT22;49949;43.060;25.624;2023-10-08T10:59:02;28.00;47.00
63802;DHT22;49949;43.060;25.624;2023-10-08T11:01:47;28.00;47.20
63802;DHT22;49949;43.060;25.624;2023-10-08T11:04:18;28.00;47.20
63802;DHT22;49949;43.060;25.624;2023-10-08T11:06:49;27.90;47.30
63802;DHT22;49949;43.060;25.624;2023-10-08T11:09:16;27.90;47.40
63802;DHT22;49949;43.060;25.624;2023-10-08T11:11:48;28.00;48.20
63802;DHT22;49949;43.060;25.624;2023-10-08T11:14:20;28.10;47.60
63802;DHT22;49949;43.060;25.624;2023-10-08T11:16:47;28.10;46.80
63802;DHT22;49949;43.060;25.624;2023-10-08T11:19:14;28.10;46.40
63802;DHT22;49949;43.060;25.624;2023-10-08T11:21:53;28.00;46.50
63802;DHT22;49949;43.060;25.624;2023-10-08T11:24:32;27.80;45.90
63802;DHT22;49949;43.060;25.624;2023-10-08T11:27:04;27.60;46.40
63802;DHT22;49949;43.060;25.624;2023-10-08T11:29:47;27.50;46.60
63802;DHT22;49949;43.060;25.624;2023-10-08T11:32:16;27.40;46.50
63802;DHT22;49949;43.060;25.624;2023-10-08T11:34:46;27.40;46.90
63802;DHT22;49949;43.060;25.624;2023-10-08T11:37:26;27.50;46.80
63802;DHT22;49949;43.060;25.624;2023-10-08T11:39:52;27.60;46.90
63802;DHT22;49949;43.060;25.624;2023-10-08T11:42:18;27.60;47.50
63802;DHT22;49949;43.060;25.624;2023-10-08T11:44:56;27.70;48.20
63802;DHT22;49949;43.060;25.624;2023-10-08T11:47:25;27.80;48.80
63802;DHT22;49949;43.060;25.624;2023-10-08T11:50:01;27.80;48.70
63802;DHT22;49949;43.060;25.624;2023-10-08T11:52:37;27.90;48.80
63802;DHT22;49949;43.060;25.624;2023-10-08T11:55:08;28.10;49.70
63802;DHT22;49949;43.060;25.624;2023-10-08T11:57:33;27.90;49.00
63802;DHT22;49949;43.060;25.624;2023-10-08T12:00:04;27.80;49.20
63802;DHT22;49949;43.060;25.624;2023-10-08T12:02:45;27.80;49.40
63802;DHT22;49949;43.060;25.624;2023-10-08T12:05:11;27.80;49.00
63802;DHT22;49949;43.060;25.624;2023-10-08T12:07:46;28.00;49.50
63802;DHT22;49949;43.060;25.624;2023-10-08T12:10:12;28.00;49.40
63802;DHT22;49949;43.060;25.624;2023-10-08T12:12:37;28.00;49.00
63802;DHT22;49949;43.060;25.624;2023-10-08T12:15:04;27.90;48.30
63802;DHT22;49949;43.060;25.624;2023-10-08T12:17:30;28.00;49.20
63802;DHT22;49949;43.060;25.624;2023-10-08T12:20:05;27.90;48.30
63802;DHT22;49949;43.060;25.624;2023-10-08T12:22:49;27.90;48.10
63802;DHT22;49949;43.060;25.624;2023-10-08T12:25:15;27.90;48.30
63802;DHT22;49949;43.060;25.624;2023-10-08T12:27:41;28.00;49.00
63802;DHT22;49949;43.060;25.624;2023-10-08T12:30:07;27.90;48.70
63802;DHT22;49949;43.060;25.624;2023-10-08T12:32:39;27.90;49.20
63802;DHT22;49949;43.060;25.624;2023-10-08T12:35:11;27.80;49.30
63802;DHT22;49949;43.060;25.624;2023-10-08T12:37:41;27.60;49.90
63802;DHT22;49949;43.060;25.624;2023-10-08T12:40:10;27.60;49.30
63802;DHT22;49949;43.060;25.624;2023-10-08T12:42:37;27.70;49.70
63802;DHT22;49949;43.060;25.624;2023-10-08T12:45:09;27.70;49.30
63802;DHT22;49949;43.060;25.624;2023-10-08T12:47:38;27.80;50.10
63802;DHT22;49949;43.060;25.624;2023-10-08T12:50:04;27.80;49.50
63802;DHT22;49949;43.060;25.624;2023-10-08T12:52:33;27.80;50.00
63802;DHT22;49949;43.060;25.624;2023-10-08T12:55:02;27.70;49.60
63802;DHT22;49949;43.060;25.624;2023-10-08T12:57:32;27.70;50.00
63802;DHT22;49949;43.060;25.624;2023-10-08T13:00:01;27.60;50.00
63802;DHT22;49949;43.060;25.624;2023-10-08T13:02:29;27.60;50.30
63802;DHT22;49949;43.060;25.624;2023-10-08T13:04:55;27.70;50.30
63802;DHT22;49949;43.060;25.624;2023-10-08T13:07:21;27.70;50.10
63802;DHT22;49949;43.060;25.624;2023-10-08T13:09:47;27.70;50.00
63802;DHT22;49949;43.060;25.624;2023-10-08T13:12:13;27.70;50.00
63802;DHT22;49949;43.060;25.624;2023-10-08T13:14:41;27.70;50.10
63802;DHT22;49949;43.060;25.624;2023-10-08T13:17:10;27.80;49.80
63802;DHT22;49949;43.060;25.624;2023-10-08T13:19:37;27.70;50.20
63802;DHT22;49949;43.060;25.624;2023-10-08T13:22:03;27.60;50.50
63802;DHT22;49949;43.060;25.624;2023-10-08T13:24:35;27.50;50.10
63802;DHT22;49949;43.060;25.624;2023-10-08T13:27:06;27.60;50.40
63802;DHT22;49949;43.060;25.624;2023-10-08T13:29:32;27.60;49.70
63802;DHT22;49949;43.060;25.624;2023-10-08T13:31:58;27.50;49.70
63802;DHT22;49949;43.060;25.624;2023-10-08T13:34:24;27.50;49.70
63802;DHT22;49949;43.060;25.624;2023-10-08T13:36:52;27.60;49.70
63802;DHT22;49949;43.060;25.624;2023-10-08T13:39:17;27.60;49.30
63802;DHT22;49949;43.060;25.624;2023-10-08T13:41:47;27.50;48.70
63802;DHT22;49949;43.060;25.624;2023-10-08T13:44:17;27.50;49.50
63802;DHT22;49949;43.060;25.624;2023-10-08T13:46:44;27.50;49.80
63802;DHT22;49949;43.060;25.624;2023-10-08T13:49:15;27.40;49.50
63802;DHT22;49949;43.060;25.624;2023-10-08T13:51:42;27.40;49.40
63802;DHT22;49949;43.060;25.624;2023-10-08T13:54:10;27.50;49.90
63802;DHT22;49949;43.060;25.624;2023-10-08T13:56:36;27.50;49.30
63802;DHT22;49949;43.060;25.624;2023-10-08T13:59:04;27.50;49.00
63802;DHT22;49949;43.060;25.624;2023-10-08T14:01:40;27.50;49.20
63802;DHT22;49949;43.060;25.624;2023-10-08T14:04:08;27.50;49.00
63802;DHT22;49949;43.060;25.624;2023-10-08T14:06:39;27.50;49.20
63802;DHT22;49949;43.060;25.624;2023-10-08T14:09:13;27.40;49.00
63802;DHT22;49949;43.060;25.624;2023-10-08T14:11:46;27.20;49.30
63802;DHT22;49949;43.060;25.624;2023-10-08T14:14:12;27.10;49.20
63802;DHT22;49949;43.060;25.624;2023-10-08T14:16:41;27.20;49.70
63802;DHT22;49949;43.060;25.624;2023-10-08T14:19:13;27.20;49.40
63802;DHT22;49949;43.060;25.624;2023-10-08T14:21:40;27.20;49.80
63802;DHT22;49949;43.060;25.624;2023-10-08T14:24:16;27.20;49.50
63802;DHT22;49949;43.060;25.624;2023-10-08T14:26:42;27.20;49.90
63802;DHT22;49949;43.060;25.624;2023-10-08T14:29:09;27.20;50.00
63802;DHT22;49949;43.060;25.624;2023-10-08T14:31:41;27.30;50.10
63802;DHT22;49949;43.060;25.624;2023-10-08T14:34:09;27.30;50.10
63802;DHT22;49949;43.060;25.624;2023-10-08T14:36:41;27.20;49.80
63802;DHT22;49949;43.060;25.624;2023-10-08T14:39:25;27.10;50.50
63802;DHT22;49949;43.060;25.624;2023-10-08T14:42:09;27.10;50.50
63802;DHT22;49949;43.060;25.624;2023-10-08T14:44:53;27.10;51.00
63802;DHT22;49949;43.060;25.624;2023-10-08T14:47:19;27.10;51.70
63802;DHT22;49949;43.060;25.624;2023-10-08T14:49:45;26.90;50.80
63802;DHT22;49949;43.060;25.624;2023-10-08T14:52:11;26.80;50.20
63802;DHT22;49949;43.060;25.624;2023-10-08T14:54:37;26.80;50.20
63802;DHT22;49949;43.060;25.624;2023-10-08T14:57:03;26.80;50.70
63802;DHT22;49949;43.060;25.624;2023-10-08T14:59:31;26.70;51.10
63802;DHT22;49949;43.060;25.624;2023-10-08T15:01:57;26.70;51.20
63802;DHT22;49949;43.060;25.624;2023-10-08T15:04:24;26.60;51.20
63802;DHT22;49949;43.060;25.624;2023-10-08T15:06:54;26.60;51.30
63802;DHT22;49949;43.060;25.624;2023-10-08T15:09:22;26.50;51.80
63802;DHT22;49949;43.060;25.624;2023-10-08T15:11:50;26.40;51.80
63802;DHT22;49949;43.060;25.624;2023-10-08T15:14:22;26.30;52.00
63802;DHT22;49949;43.060;25.624;2023-10-08T15:16:49;26.30;51.80
63802;DHT22;49949;43.060;25.624;2023-10-08T15:19:19;26.20;52.20
63802;DHT22;49949;43.060;25.624;2023-10-08T15:21:44;26.10;52.70
63802;DHT22;49949;43.060;25.624;2023-10-08T15:24:19;26.00;52.50
63802;DHT22;49949;43.060;25.624;2023-10-08T15:26:50;25.90;52.50
63802;DHT22;49949;43.060;25.624;2023-10-08T15:29:18;25.90;52.50
63802;DHT22;49949;43.060;25.624;2023-10-08T15:31:46;25.80;53.00
63802;DHT22;49949;43.060;25.624;2023-10-08T15:34:12;25.80;52.90
63802;DHT22;49949;43.060;25.624;2023-10-08T15:36:41;25.70;53.30
63802;DHT22;49949;43.060;25.624;2023-10-08T15:39:07;25.70;53.70
63802;DHT22;49949;43.060;25.624;2023-10-08T15:41:36;25.60;53.40
63802;DHT22;49949;43.060;25.624;2023-10-08T15:44:03;25.50;53.80
63802;DHT22;49949;43.060;25.624;2023-10-08T15:46:28;25.50;54.40
63802;DHT22;49949;43.060;25.624;2023-10-08T15:48:54;25.30;54.60
63802;DHT22;49949;43.060;25.624;2023-10-08T15:51:20;25.30;54.60